createdAt,value
2023-03-27T00:02:28.998Z,57.20
2023-03-27T00:05:20.667Z,56.80
2023-03-27T00:08:11.515Z,58.00
2023-03-27T00:11:02.191Z,56.60
2023-03-27T00:13:54.621Z,58.50
2023-03-27T00:16:46.612Z,58.20
2023-03-27T00:19:37.463Z,64.30
2023-03-27T00:22:30.077Z,59.90
2023-03-27T00:25:22.757Z,53.30
2023-03-27T00:28:14.066Z,50.40
2023-03-27T00:31:04.853Z,51.20
2023-03-27T00:33:55.982Z,50.20
2023-03-27T00:36:51.277Z,52.40
2023-03-27T00:39:42.587Z,49.00
2023-03-27T00:42:33.633Z,47.00
2023-03-27T00:45:26.682Z,46.80
2023-03-27T00:48:18.921Z,47.80
2023-03-27T00:51:09.873Z,48.80
2023-03-27T00:54:00.775Z,48.60
2023-03-27T00:56:51.943Z,48.80
2023-03-27T00:59:43.167Z,51.10
2023-03-27T01:02:33.786Z,49.30
2023-03-27T01:05:24.897Z,49.20
2023-03-27T01:08:16.597Z,49.50
2023-03-27T01:11:15.061Z,49.80
2023-03-27T01:14:12.330Z,50.10
2023-03-27T01:17:21.125Z,53.40
2023-03-27T01:20:25.762Z,52.30
2023-03-27T01:23:59.142Z,52.70
2023-03-27T01:27:06.368Z,52.50
2023-03-27T01:30:17.194Z,51.90
2023-03-27T01:33:27.241Z,49.40
2023-03-27T01:36:25.062Z,49.30
2023-03-27T01:39:37.461Z,48.90
2023-03-27T01:42:31.490Z,48.10
2023-03-27T01:45:23.835Z,50.20
2023-03-27T01:48:16.971Z,50.90
2023-03-27T01:51:09.366Z,50.00
2023-03-27T01:54:01.563Z,50.60
2023-03-27T01:56:54.132Z,49.30
2023-03-27T01:59:47.308Z,46.50
2023-03-27T02:02:37.640Z,46.70
2023-03-27T02:05:31.740Z,46.60
2023-03-27T02:08:24.747Z,44.30
2023-03-27T02:11:18.944Z,41.00
2023-03-27T02:14:10.458Z,40.00
2023-03-27T02:17:03.564Z,37.70
2023-03-27T02:19:57.537Z,31.70
2023-03-27T02:22:49.576Z,31.10
2023-03-27T02:25:40.765Z,30.50
2023-03-27T02:28:49.341Z,29.00
2023-03-27T02:31:46.498Z,29.60
2023-03-27T02:34:51.019Z,26.00
2023-03-27T02:37:47.540Z,24.50
2023-03-27T02:43:57.585Z,20.20
2023-03-27T02:47:03.050Z,18.90
2023-03-27T02:49:55.236Z,19.50
2023-03-27T02:52:46.860Z,17.60
2023-03-27T02:55:39.976Z,17.50
2023-03-27T02:58:39.838Z,17.90
2023-03-27T03:01:37.482Z,18.30
2023-03-27T03:04:41.841Z,11.00
2023-03-27T03:07:50.449Z,17.30
2023-03-27T03:10:44.758Z,10.70
2023-03-27T03:13:36.372Z,17.50
2023-03-27T03:16:27.156Z,10.30
2023-03-27T03:19:17.677Z,16.10
2023-03-27T03:22:08.358Z,15.60
2023-03-27T03:25:00.108Z,15.40
2023-03-27T03:27:58.576Z,8.30
2023-03-27T03:30:51.523Z,14.90
2023-03-27T03:33:42.434Z,14.30
2023-03-27T03:36:32.968Z,13.80
2023-03-27T03:39:24.404Z,13.60
2023-03-27T03:42:22.340Z,12.60
2023-03-27T03:45:16.332Z,12.90
2023-03-27T03:48:08.027Z,6.00
2023-03-27T03:50:58.793Z,11.20
2023-03-27T03:53:49.906Z,11.10
2023-03-27T03:56:41.816Z,11.00
2023-03-27T03:59:32.546Z,10.80
2023-03-27T04:02:41.672Z,10.90
2023-03-27T04:05:34.822Z,6.40
2023-03-27T04:08:25.472Z,10.60
2023-03-27T04:11:28.013Z,5.60
2023-03-27T04:14:29.580Z,11.20
2023-03-27T04:17:20.786Z,10.50
2023-03-27T04:20:13.082Z,6.10
2023-03-27T04:23:03.912Z,6.60
2023-03-27T04:25:55.053Z,6.90
2023-03-27T04:28:51.733Z,10.80
2023-03-27T04:32:01.422Z,6.70
2023-03-27T04:35:12.737Z,6.90
2023-03-27T04:38:13.385Z,12.30
2023-03-27T04:41:09.452Z,12.90
2023-03-27T04:44:00.433Z,12.00
2023-03-27T04:46:52.095Z,6.30
2023-03-27T04:49:47.110Z,11.40
2023-03-27T04:52:50.645Z,4.20
2023-03-27T04:55:43.385Z,6.20
2023-03-27T04:58:37.203Z,9.70
2023-03-27T05:01:31.667Z,9.10
2023-03-27T05:04:39.099Z,4.70
2023-03-27T05:07:39.291Z,8.30
2023-03-27T05:10:31.009Z,8.70
2023-03-27T05:13:22.899Z,4.70
2023-03-27T05:16:13.860Z,7.10
2023-03-27T05:19:08.014Z,4.20
2023-03-27T05:22:04.722Z,6.20
2023-03-27T05:24:55.552Z,6.70
2023-03-27T05:27:49.738Z,5.80
2023-03-27T05:30:42.356Z,6.10
2023-03-27T05:33:40.004Z,7.00
2023-03-27T05:36:31.917Z,4.30
2023-03-27T05:39:25.499Z,7.70
2023-03-27T05:42:16.256Z,7.00
2023-03-27T05:45:07.796Z,6.00
2023-03-27T05:47:59.922Z,3.10
2023-03-27T05:50:51.137Z,6.10
2023-03-27T05:53:44.924Z,5.70
2023-03-27T05:56:41.651Z,5.30
2023-03-27T05:59:33.412Z,5.30
2023-03-27T06:02:35.864Z,6.00
2023-03-27T06:05:27.825Z,6.20
2023-03-27T06:08:18.135Z,3.90
2023-03-27T06:11:14.003Z,6.20
2023-03-27T06:14:13.246Z,6.70
2023-03-27T06:17:20.862Z,6.20
2023-03-27T06:20:22.927Z,6.70
2023-03-27T06:23:15.695Z,6.40
2023-03-27T06:26:06.432Z,3.00
2023-03-27T06:28:57.457Z,6.70
2023-03-27T06:31:48.420Z,5.90
2023-03-27T06:34:50.456Z,5.60
2023-03-27T06:38:02.863Z,6.00
2023-03-27T06:40:53.543Z,5.50
2023-03-27T06:43:44.094Z,5.10
2023-03-27T06:46:45.240Z,5.90
2023-03-27T06:50:03.191Z,4.40
2023-03-27T06:52:53.742Z,4.20
2023-03-27T06:56:04.783Z,4.90
2023-03-27T06:59:09.125Z,2.20
2023-03-27T07:02:00.789Z,5.70
2023-03-27T07:05:17.769Z,3.20
2023-03-27T07:08:21.165Z,6.00
2023-03-27T07:11:15.044Z,5.60
2023-03-27T07:14:12.112Z,6.50
2023-03-27T07:17:02.911Z,3.00
2023-03-27T07:20:07.872Z,6.50
2023-03-27T07:22:58.909Z,6.50
2023-03-27T07:26:07.924Z,3.50
2023-03-27T07:29:19.654Z,6.00
2023-03-27T07:32:22.330Z,6.00
2023-03-27T07:35:21.056Z,2.80
2023-03-27T07:38:30.942Z,5.50
2023-03-27T07:41:36.779Z,5.30
2023-03-27T07:44:40.956Z,5.00
2023-03-27T07:47:32.295Z,2.30
2023-03-27T07:50:23.903Z,4.00
2023-03-27T07:53:33.584Z,2.60
2023-03-27T07:56:29.637Z,1.90
2023-03-27T07:59:34.890Z,2.20
2023-03-27T08:02:32.584Z,2.20
2023-03-27T08:05:23.076Z,3.80
2023-03-27T08:08:23.901Z,1.50
2023-03-27T08:11:30.069Z,3.10
2023-03-27T08:14:21.901Z,2.90
2023-03-27T08:17:16.128Z,5.60
2023-03-27T08:20:10.127Z,6.50
2023-03-27T08:23:07.849Z,5.70
2023-03-27T08:26:18.453Z,4.50
2023-03-27T08:29:35.136Z,4.00
2023-03-27T08:32:26.209Z,3.10
2023-03-27T08:35:18.151Z,2.70
2023-03-27T08:38:23.699Z,2.50
2023-03-27T08:41:38.641Z,2.40
2023-03-27T08:44:36.973Z,2.80
2023-03-27T08:47:32.700Z,2.70
2023-03-27T08:50:40.048Z,2.90
2023-03-27T08:53:39.639Z,3.10
2023-03-27T08:56:30.347Z,2.80
2023-03-27T08:59:22.649Z,2.20
2023-03-27T09:02:19.702Z,3.10
2023-03-27T09:05:15.639Z,2.50
2023-03-27T09:08:10.525Z,1.10
2023-03-27T09:11:03.567Z,2.50
2023-03-27T09:13:57.484Z,1.20
2023-03-27T09:16:50.086Z,3.00
2023-03-27T09:19:56.704Z,2.70
2023-03-27T09:22:52.712Z,2.90
2023-03-27T09:26:06.793Z,3.30
2023-03-27T09:29:20.752Z,3.60
2023-03-27T09:32:16.227Z,1.50
2023-03-27T09:35:07.643Z,2.20
2023-03-27T09:38:04.051Z,2.10
2023-03-27T09:40:58.198Z,3.50
2023-03-27T09:43:53.751Z,3.80
2023-03-27T09:46:45.850Z,4.00
2023-03-27T09:49:36.915Z,3.90
2023-03-27T09:52:38.310Z,4.30
2023-03-27T09:55:53.183Z,4.50
2023-03-27T09:58:46.352Z,1.20
2023-03-27T10:01:38.369Z,2.20
2023-03-27T10:04:36.767Z,2.20
2023-03-27T10:07:27.425Z,4.30
2023-03-27T10:10:37.945Z,1.70
2023-03-27T10:13:29.588Z,4.20
2023-03-27T10:16:21.640Z,3.70
2023-03-27T10:19:25.103Z,4.30
2023-03-27T10:22:22.322Z,4.10
2023-03-27T10:25:19.429Z,3.70
2023-03-27T10:28:20.331Z,1.40
2023-03-27T10:31:38.032Z,4.10
2023-03-27T10:34:51.589Z,3.90
2023-03-27T10:37:49.902Z,1.90
2023-03-27T10:40:59.244Z,4.10
2023-03-27T10:43:59.396Z,1.80
2023-03-27T10:46:50.341Z,3.60
2023-03-27T10:49:44.267Z,4.00
2023-03-27T10:52:47.042Z,4.00
2023-03-27T10:55:54.018Z,2.00
2023-03-27T10:58:47.215Z,4.00
2023-03-27T11:01:39.592Z,4.30
2023-03-27T11:04:37.590Z,4.20
2023-03-27T11:07:33.989Z,4.20
2023-03-27T11:10:28.005Z,1.80
2023-03-27T11:13:23.281Z,3.90
2023-03-27T11:16:22.093Z,1.40
2023-03-27T11:19:39.384Z,2.30
2023-03-27T11:22:52.665Z,4.30
2023-03-27T11:26:00.272Z,2.40
2023-03-27T11:28:53.137Z,2.40
2023-03-27T11:31:46.399Z,3.90
2023-03-27T11:34:41.684Z,3.50
2023-03-27T11:37:53.502Z,3.30
2023-03-27T11:40:44.897Z,3.40
2023-03-27T11:43:35.563Z,3.60
2023-03-27T11:46:44.817Z,3.30
2023-03-27T11:50:04.888Z,1.80
2023-03-27T11:53:05.481Z,2.70
2023-03-27T11:56:32.393Z,2.80
2023-03-27T11:59:49.151Z,2.20
2023-03-27T12:02:50.285Z,2.20
2023-03-27T12:05:48.388Z,1.00
2023-03-27T12:08:48.300Z,2.50
2023-03-27T12:11:40.269Z,2.40
2023-03-27T12:14:40.444Z,1.20
2023-03-27T12:17:46.210Z,2.20
2023-03-27T12:20:58.707Z,1.90
2023-03-27T12:24:09.687Z,1.90
2023-03-27T12:27:07.570Z,0.70
2023-03-27T12:33:32.547Z,2.10
2023-03-27T12:36:24.403Z,2.00
2023-03-27T12:39:20.120Z,0.60
2023-03-27T12:42:16.533Z,1.90
2023-03-27T12:45:16.227Z,1.70
2023-03-27T12:48:19.373Z,1.80
2023-03-27T12:51:15.162Z,2.30
2023-03-27T12:54:26.567Z,0.80
2023-03-27T12:57:20.768Z,1.20
2023-03-27T13:00:22.322Z,2.20
2023-03-27T13:03:22.800Z,1.00
2023-03-27T13:06:24.712Z,2.50
2023-03-27T13:09:40.132Z,2.00
2023-03-27T13:12:52.595Z,2.10
2023-03-27T13:15:52.297Z,2.00
2023-03-27T13:19:01.925Z,1.20
2023-03-27T13:21:58.470Z,0.70
2023-03-27T13:25:09.110Z,2.20
2023-03-27T13:28:28.469Z,1.90
2023-03-27T13:32:01.669Z,2.10
2023-03-27T13:35:33.048Z,2.20
2023-03-27T13:39:08.052Z,1.00
2023-03-27T13:42:13.564Z,1.20
2023-03-27T13:45:13.981Z,1.00
2023-03-27T13:48:33.841Z,2.00
2023-03-27T13:51:44.729Z,1.20
2023-03-27T13:54:55.730Z,1.90
2023-03-27T13:58:14.962Z,1.80
2023-03-27T14:01:34.341Z,1.90
2023-03-27T14:04:59.933Z,1.70
2023-03-27T14:08:25.280Z,2.50
2023-03-27T14:11:59.014Z,2.40
2023-03-27T14:15:28.923Z,2.20
2023-03-27T14:19:18.986Z,1.20
2023-03-27T14:22:14.519Z,2.30
2023-03-27T14:25:15.096Z,0.70
2023-03-27T14:28:14.682Z,2.00
2023-03-27T14:31:08.640Z,0.50
2023-03-27T14:34:22.459Z,1.00
2023-03-27T14:37:31.709Z,2.00
2023-03-27T14:40:28.531Z,1.30
2023-03-27T14:43:22.389Z,0.70
2023-03-27T14:46:16.984Z,1.20
2023-03-27T14:49:08.738Z,1.70
2023-03-27T14:52:04.091Z,0.50
2023-03-27T14:55:30.157Z,0.40
2023-03-27T14:58:43.124Z,0.70
2023-03-27T15:01:35.215Z,1.80
2023-03-27T15:04:26.784Z,0.80
2023-03-27T15:07:20.103Z,1.60
2023-03-27T15:10:26.321Z,0.80
2023-03-27T15:13:27.620Z,0.50
2023-03-27T15:16:20.927Z,0.90
2023-03-27T15:19:23.214Z,2.00
2023-03-27T15:22:18.133Z,0.70
2023-03-27T15:25:10.116Z,2.70
2023-03-27T15:28:00.769Z,1.50
2023-03-27T15:30:52.439Z,2.30
2023-03-27T15:33:46.658Z,2.00
2023-03-27T15:36:37.492Z,0.80
2023-03-27T15:39:28.230Z,1.90
2023-03-27T15:42:18.773Z,2.30
2023-03-27T15:45:12.705Z,0.90
2023-03-27T15:48:06.596Z,2.10
2023-03-27T15:50:58.359Z,2.30
2023-03-27T15:53:49.864Z,1.80
2023-03-27T15:56:41.607Z,2.00
2023-03-27T15:59:32.719Z,2.20
2023-03-27T16:02:24.689Z,0.90
2023-03-27T16:05:17.656Z,1.00
2023-03-27T16:08:08.714Z,2.20
2023-03-27T16:11:00.599Z,1.90
2023-03-27T16:13:56.126Z,0.70
2023-03-27T16:16:49.714Z,0.70
2023-03-27T16:19:54.896Z,1.70
2023-03-27T16:22:45.659Z,1.00
2023-03-27T16:25:36.507Z,0.90
2023-03-27T16:28:29.822Z,2.10
2023-03-27T16:31:21.481Z,1.10
2023-03-27T16:34:23.333Z,0.70
2023-03-27T16:37:14.471Z,1.90
2023-03-27T16:40:05.188Z,1.30
2023-03-27T16:42:56.054Z,2.00
2023-03-27T16:45:47.901Z,0.90
2023-03-27T16:48:38.678Z,1.20
2023-03-27T16:51:32.690Z,3.00
2023-03-27T16:54:23.213Z,1.50
2023-03-27T16:57:13.885Z,1.50
2023-03-27T17:00:05.535Z,4.20
2023-03-27T17:02:56.519Z,2.00
2023-03-27T17:05:50.515Z,1.20
2023-03-27T17:08:41.570Z,1.10
2023-03-27T17:11:32.601Z,1.30
2023-03-27T17:14:23.631Z,3.40
2023-03-27T17:17:14.655Z,1.60
2023-03-27T17:20:07.759Z,3.60
2023-03-27T17:22:58.565Z,0.70
2023-03-27T17:25:49.465Z,3.70
2023-03-27T17:28:40.155Z,1.00
2023-03-27T17:31:31.301Z,1.10
2023-03-27T17:34:22.400Z,3.70
2023-03-27T17:37:13.786Z,0.80
2023-03-27T17:40:09.748Z,3.90
2023-03-27T17:43:00.927Z,2.00
2023-03-27T17:45:52.009Z,4.30
2023-03-27T17:48:47.797Z,1.40
2023-03-27T17:51:42.261Z,1.70
2023-03-27T17:54:32.777Z,2.40
2023-03-27T17:57:24.263Z,4.70
2023-03-27T18:00:17.937Z,2.10
2023-03-27T18:03:09.061Z,2.40
2023-03-27T18:06:05.396Z,1.90
2023-03-27T18:08:56.047Z,1.60
2023-03-27T18:11:47.142Z,1.70
2023-03-27T18:14:38.530Z,5.30
2023-03-27T18:17:29.079Z,2.20
2023-03-27T18:20:20.356Z,3.10
2023-03-27T18:23:11.215Z,6.20
2023-03-27T18:26:04.772Z,3.30
2023-03-27T18:28:55.619Z,3.10
2023-03-27T18:31:46.464Z,3.00
2023-03-27T18:34:37.416Z,3.40
2023-03-27T18:37:28.537Z,2.10
2023-03-27T18:40:19.819Z,3.50
2023-03-27T18:43:12.549Z,2.30
2023-03-27T18:46:06.247Z,3.50
2023-03-27T18:48:58.725Z,3.60
2023-03-27T18:51:49.100Z,7.40
2023-03-27T18:54:39.926Z,3.00
2023-03-27T18:57:30.379Z,2.40
2023-03-27T19:00:22.003Z,2.50
2023-03-27T19:03:17.978Z,2.20
2023-03-27T19:06:10.409Z,2.30
2023-03-27T19:09:01.437Z,2.00
2023-03-27T19:11:55.371Z,6.80
2023-03-27T19:15:19.881Z,2.70
2023-03-27T19:18:46.839Z,2.90
2023-03-27T19:21:41.983Z,2.60
2023-03-27T19:24:41.578Z,6.70
2023-03-27T19:27:39.197Z,3.00
2023-03-27T19:30:30.666Z,2.80
2023-03-27T19:33:21.775Z,2.10
2023-03-27T19:36:13.041Z,2.20
2023-03-27T19:39:04.591Z,2.50
2023-03-27T19:41:56.016Z,2.90
2023-03-27T19:44:46.741Z,2.80
2023-03-27T19:47:37.706Z,3.20
2023-03-27T19:50:28.435Z,3.30
2023-03-27T19:53:35.734Z,3.00
2023-03-27T19:56:26.737Z,3.20
2023-03-27T19:59:28.260Z,7.40
2023-03-27T20:02:21.389Z,7.90
2023-03-27T20:05:12.501Z,2.80
2023-03-27T20:08:03.181Z,3.10
2023-03-27T20:10:53.661Z,2.80
2023-03-27T20:13:55.571Z,2.80
2023-03-27T20:16:48.256Z,2.70
2023-03-27T20:19:46.188Z,1.80
2023-03-27T20:22:50.256Z,3.10
2023-03-27T20:25:50.045Z,6.30
2023-03-27T20:28:40.887Z,2.40
2023-03-27T20:31:31.655Z,2.60
2023-03-27T20:34:24.144Z,2.10
2023-03-27T20:37:14.743Z,2.70
2023-03-27T20:40:08.635Z,6.40
2023-03-27T20:43:06.045Z,2.50
2023-03-27T20:45:59.074Z,2.20
2023-03-27T20:48:53.889Z,2.70
2023-03-27T20:51:45.534Z,6.60
2023-03-27T20:54:36.034Z,2.70
2023-03-27T20:57:26.684Z,2.50
2023-03-27T21:00:18.111Z,6.50
2023-03-27T21:03:08.952Z,2.60
2023-03-27T21:06:00.987Z,7.30
2023-03-27T21:08:51.792Z,8.00
2023-03-27T21:11:42.374Z,3.60
2023-03-27T21:14:32.898Z,4.30
2023-03-27T21:17:23.425Z,4.80
2023-03-27T21:20:14.605Z,3.70
2023-03-27T21:23:05.581Z,10.50
2023-03-27T21:25:56.202Z,4.50
2023-03-27T21:28:46.571Z,11.00
2023-03-27T21:31:37.227Z,3.70
2023-03-27T21:34:28.356Z,9.40
2023-03-27T21:37:19.248Z,3.90
2023-03-27T21:40:11.702Z,3.80
2023-03-27T21:43:02.518Z,4.30
2023-03-27T21:45:53.325Z,5.80
2023-03-27T21:48:44.863Z,16.30
2023-03-27T21:51:35.908Z,17.00
2023-03-27T21:54:26.446Z,7.50
2023-03-27T21:57:17.257Z,6.60
2023-03-27T22:00:09.994Z,8.20
2023-03-27T22:03:03.568Z,8.00
2023-03-27T22:06:07.709Z,17.80
2023-03-27T22:09:01.378Z,6.70
2023-03-27T22:11:51.758Z,14.90
2023-03-27T22:14:42.130Z,6.70
2023-03-27T22:17:33.146Z,5.80
2023-03-27T22:20:23.788Z,5.60
2023-03-27T22:23:14.341Z,5.20
2023-03-27T22:26:04.953Z,6.20
2023-03-27T22:28:57.231Z,6.80
2023-03-27T22:31:47.978Z,6.40
2023-03-27T22:34:38.376Z,6.80
2023-03-27T22:37:28.838Z,6.90
2023-03-27T22:40:19.630Z,7.90
2023-03-27T22:43:10.201Z,20.50
2023-03-27T22:46:06.189Z,9.30
2023-03-27T22:48:57.333Z,9.40
2023-03-27T22:51:47.834Z,10.20
2023-03-27T22:54:38.510Z,10.10
2023-03-27T22:57:29.162Z,10.80
2023-03-27T23:00:21.892Z,11.30
2023-03-27T23:03:12.766Z,11.40
2023-03-27T23:06:03.714Z,11.50
2023-03-27T23:08:54.296Z,12.20
2023-03-27T23:11:45.469Z,12.00
2023-03-27T23:14:36.210Z,11.70
2023-03-27T23:17:27.378Z,11.50
2023-03-27T23:20:18.299Z,11.40
2023-03-27T23:23:08.804Z,22.20
2023-03-27T23:25:59.813Z,9.50
2023-03-27T23:28:50.645Z,9.80
2023-03-27T23:31:41.915Z,9.70
2023-03-27T23:34:32.597Z,10.70
2023-03-27T23:37:23.068Z,9.60
2023-03-27T23:40:14.344Z,9.50
2023-03-27T23:43:04.990Z,14.60
2023-03-27T23:45:56.302Z,7.40
2023-03-27T23:48:47.229Z,8.30
2023-03-27T23:51:37.762Z,6.30
2023-03-27T23:54:28.305Z,6.70
2023-03-27T23:57:19.137Z,6.80
